Weather observations for the past three days for
Tonopah, Tonopah Airport
Imperial (Metric)
Date Time (pdt) Wind (mph) Vis. (mi.) Weather Sky Cond. Temperature (ºF) Relative Humidity Wind Chill (°F) Heat Index (°F) Pressure Precipitation (in)
Air Dwpt 6 hour altimeter (in) sea level (mb) 1 hr 3 hr 6 hr
Max. Min.
05 10:56 S 17 G 24 10.00 Fair CLR 71.1 36 71.1 45 28% 30.09 1012.4
05 09:56 S 7 10.00 Fair CLR 66.9 39.9 37% 30.1 1012.7
05 08:56 S 7 10.00 Fair CLR 62.1 39 43% 30.09 1013.0
05 07:56 Calm 10.00 Fair CLR 55.9 34 44% 30.09 1013.1
05 06:56 N 6 10.00 Fair CLR 48.9 32 52% 47 30.08 1013.1
05 05:56 N 7 10.00 Fair CLR 46 32 58% 43 30.05 1012.2
05 04:56 N 7 10.00 Fair CLR 50 32 64.9 48 50% 48 30.05 1011.4
05 03:56 N 6 10.00 Fair CLR 48.9 30.9 50% 47 30.03 1010.9
05 02:56 NW 3 10.00 Fair CLR 51.1 32 48% 30.03 1010.5
05 01:56 E 5 10.00 Fair CLR 55 34 45% 30.03 1010.4
05 00:56 NE 6 10.00 Fair CLR 60.1 35.1 39% 30.03 1009.7
04 23:56 SE 8 10.00 Fair CLR 64 35.1 34% 30 1009.0
04 22:56 S 6 10.00 Fair CLR 64 33.1 79 63 32% 29.98 1008.7
04 21:56 S 13 10.00 Fair CLR 66 33.1 29% 29.98 1008.5
04 20:56 S 13 10.00 Fair CLR 68 33.1 27% 29.97 1008.3
04 19:56 S 12 10.00 Fair CLR 71.1 32 24% 29.95 1007.7
04 18:56 S 17 G 30 10.00 Fair CLR 73.9 30.9 20% 29.94 1008.4
04 17:56 S 21 G 35 10.00 Fair and Breezy CLR 77 32 19% 77 29.94 1008.2
04 16:56 S 26 G 35 10.00 Fair and Windy CLR 79 30 81 71.1 17% 78 29.93 1007.2
04 15:56 S 22 G 37 10.00 Fair and Breezy CLR 80.1 28 15% 78 29.93 1006.9
04 14:56 S 24 G 37 10.00 Fair and Breezy CLR 80.1 30 16% 78 29.93 1006.9
04 13:56 S 25 G 38 10.00 Fair and Breezy CLR 79 30 17% 78 29.94 1006.9
04 12:56 S 22 G 35 10.00 Fair and Breezy CLR 77 30.9 18% 77 29.95 1007.1
04 11:56 S 15 G 29 10.00 Fair CLR 73.9 33.1 22% 29.97 1008.1
04 10:56 S 20 G 26 0.00 NULL NULL 70 34 70 45 27% 29.99 1008.7
04 09:56 SE 13 10.00 Fair CLR 66.9 34 30% 29.99 1009.1
04 08:56 SE 9 10.00 Fair CLR 63 35.1 35% 29.99 1009.2
04 07:56 SE 9 10.00 Fair CLR 60.1 34 38% 29.99 1009.3
04 06:56 N 3 10.00 Fair CLR 48.9 26.1 41% 29.97 1009.4
04 05:56 Calm 10.00 Fair CLR 46 21.9 38% 29.95 1008.6
04 04:56 E 5 10.00 Fair CLR 51.1 26.1 66 48 38% 29.94 1007.5
04 03:56 E 7 10.00 Fair CLR 52 25 35% 29.93 1007.0
04 02:56 E 3 10.00 Fair CLR 54 26.1 34% 29.92 1006.7
04 01:56 Calm 10.00 Fair CLR 55.9 25 30% 29.91 1006.5
04 00:56 SE 12 10.00 Fair CLR 61 26.1 26% 29.91 1005.7
03 23:56 S 10 10.00 Fair CLR 62.1 27 26% 29.91 1006.1
03 22:56 S 16 10.00 Fair CLR 66 28 79 66 24% 29.9 1005.6
03 21:56 S 15 10.00 Fair CLR 66 28 24% 29.91 1006.2
03 20:56 S 14 10.00 Fair CLR 68 28.9 23% 29.91 1006.5
03 19:56 S 14 10.00 Fair CLR 70 28.9 22% 29.9 1006.7
03 18:56 S 21 G 32 10.00 Fair and Breezy CLR 73.9 27 17% 29.9 1007.2
03 17:56 S 22 G 32 10.00 Fair and Breezy CLR 77 26.1 15% 76 29.89 1006.7
03 16:56 S 17 G 30 10.00 Fair CLR 78.1 27 80.1 69.1 15% 77 29.9 1006.6
03 15:56 S 12 G 25 10.00 Fair CLR 79 26.1 14% 78 29.92 1007.0
03 14:56 S 20 G 29 10.00 Fair CLR 78.1 25 14% 77 29.94 1007.6
03 13:56 Vrbl 5 G 21 10.00 Fair CLR 75.9 24.1 14% 76 29.96 1008.2
03 12:56 S 13 G 20 10.00 Fair CLR 75.9 23 14% 76 29.98 1008.5
03 11:56 Vrbl 6 10.00 Fair CLR 72 23 16% 30.01 1009.8
03 10:56 Calm 10.00 Fair CLR 69.1 21.9 69.1 45 17% 30.03 1010.5
03 09:56 Vrbl 6 10.00 Fair CLR 64.9 21 19% 30.04 1011.4
03 08:56 Calm 10.00 Fair CLR 61 19.9 20% 30.05 1011.8
03 07:56 N 6 10.00 Fair CLR 55 19.9 25% 30.05 1012.1
03 06:56 N 9 4.00 Fair with Haze CLR 46 18 33% 42 30.04 1012.1
03 04:56 N 7 10.00 Fair CLR 46.9 17.1 63 46 30% 44 30.03 1011.2
03 03:56 N 8 10.00 Fair CLR 48.9 17.1 28% 46 30.03 1011.0
03 02:56 NW 7 10.00 Fair CLR 48.9 18 29% 46 30.03 1011.3
03 01:56 N 7 10.00 Fair CLR 53.1 19 26% 30.04 1011.2
03 00:56 N 8 10.00 Fair CLR 57 21 25% 30.04 1011.1
02 23:56 NW 7 10.00 Fair CLR 61 21.9 22% 30.04 1011.0
02 22:56 NW 9 10.00 Fair CLR 62.1 19.9 78.1 61 20% 30.03 1011.0
02 21:56 SW 10 10.00 Fair CLR 62.1 18 18% 30.03 1011.3
02 20:56 SW 8 10.00 Fair CLR 64 19.9 18% 30.01 1010.9
02 19:56 S 10 10.00 Fair CLR 68 18 15% 29.99 1010.3
02 18:56 S 17 10.00 Fair CLR 73.9 18 12% 29.98 1010.2
02 17:56 S 10 G 25 10.00 Fair CLR 75.9 17.1 11% 75 29.99 1010.4
02 16:56 S 13 G 22 10.00 Fair CLR 78.1 17.1 79 64.9 10% 77 29.99 1010.3
02 15:56 S 16 G 24 10.00 Fair CLR 79 18 10% 77 30.01 1010.0
02 14:56 S 15 G 24 10.00 Fair CLR 77 19 11% 76 30.03 1010.6
02 13:56 S 17 G 25 10.00 Fair CLR 75 16 10% 75 30.04 1011.7
02 12:56 S 12 G 17 10.00 Fair CLR 72 17.1 12% 30.06 1012.0
02 11:56 Vrbl 3 10.00 Fair CLR 68 21 17% 30.08 1013.1
Date Time (pdt) Wind (mph) Vis. (mi.) Weather Sky Cond. Air Dwpt Max. Min. Relative Humidity Wind Chill (°F) Heat Index (°F) altimeter (in) sea level (mb) 1 hr 3 hr 6 hr
6 hour
Temperature (ºF) Pressure Precipitation (in)